Thunder radar more information blitzortung!


Löydät sääaseman tiedot myös:

European Weather Network

Finland Weather Exchange

Weather Underground

AWEKAS



Weather Underground säähistoriasivu

Päivittäin yhteenveto Elokuu 6, 2017 Yksiköt:  Englantilaiset    Metriset   Molemmat
« Edellinen Päivä
Seuraava Päivä »
Päivittäin Viikoittain Kuukausittain Vuosittain Mukautettu
  Korkea: Matala: Keskiarvo:
Lämpötila: TemperatureC °F 13.3 °F 14.8 °F
Kastepiste: DewpointC °F 12.7 °F 14.2 °F
Kosteus: Humidity % 90 % 96 %
Tuulen nopeus: WindSpeedKMH mph 0.0 mph 0.1 mph
Tuulenpuuska: WindSpeedGustKMH mph - -
Tuuli:- - NNW
Ilmanpaine: PressurehPa in 996.5 in -
Sade: 8.6 in    
Historical Graphs
 
 
Taulukkotiedot Elokuu 6, 2017
Aika Lämpötila Kastepiste Ilmanpaine Tuuli Tuulen nopeus Tuulenpuuska Kosteus Sademäärä (tunneittain)
TemperatureC °F DewpointC °F PressurehPa in Calm     Humidity % HourlyPrecipMM in
00:00 13.4 °F 13.0 °F 996.5 in Calm     97 % 0.3 in
00:15 13.5 °F 13.0 °F 996.5 in Calm     97 % 0.3 in
00:30 13.7 °F 13.4 °F 996.5 in Calm     98 % 0.3 in
00:45 13.7 °F 13.3 °F 996.5 in Calm     97 % 0.3 in
01:00 13.7 °F 13.3 °F 996.5 in Calm     97 % 0.0 in
01:15 13.7 °F 13.3 °F 996.5 in Calm     97 % 0.0 in
01:30 13.7 °F 13.4 °F 996.5 in Calm     98 % 0.0 in
01:45 13.7 °F 13.4 °F 996.5 in Calm     98 % 0.0 in
02:00 13.7 °F 13.4 °F 996.8 in Calm     98 % 0.0 in
02:15 13.8 °F 13.5 °F 996.8 in Calm     98 % 0.0 in
02:30 13.8 °F 13.5 °F 996.8 in Calm     98 % 0.0 in
02:45 13.8 °F 13.5 °F 996.8 in Calm     98 % 0.0 in
03:00 13.9 °F 13.6 °F 997.2 in Calm     98 % 0.0 in
03:15 13.9 °F 13.6 °F 997.2 in Calm     98 % 0.0 in
03:30 13.9 °F 13.6 °F 997.2 in Calm     98 % 0.0 in
03:45 14.0 °F 13.7 °F 997.2 in Calm     98 % 0.0 in
04:00 13.9 °F 13.6 °F 997.2 in Calm     98 % 0.0 in
04:15 13.9 °F 13.6 °F 997.2 in Calm     98 % 0.0 in
04:30 13.9 °F 13.6 °F 997.2 in Calm     98 % 0.0 in
04:45 13.9 °F 13.6 °F 997.2 in Calm     98 % 0.0 in
05:00 13.8 °F 13.5 °F 997.2 in Calm     98 % 0.0 in
05:15 13.8 °F 13.5 °F 997.5 in Calm     98 % 0.0 in
05:30 13.8 °F 13.5 °F 997.5 in Calm     98 % 0.0 in
06:00 13.8 °F 13.5 °F 997.5 in Calm     98 % 0.0 in
06:15 13.8 °F 13.5 °F 997.5 in Calm     98 % 0.0 in
06:30 13.9 °F 13.6 °F 997.5 in Calm     98 % 0.0 in
06:45 14.0 °F 13.7 °F 997.9 in Calm     98 % 0.0 in
07:00 14.2 °F 13.9 °F 997.9 in Calm   1.6 mph 98 % 0.0 in
07:30 14.4 °F 14.1 °F 997.9 in Calm     98 % 0.0 in
07:45 14.4 °F 14.1 °F 998.2 in Calm     98 % 0.0 in
08:00 14.5 °F 14.2 °F 998.2 in Calm     98 % 0.0 in
08:15 14.5 °F 14.2 °F 998.2 in Calm     98 % 0.0 in
08:30 14.4 °F 14.1 °F 998.2 in Calm     98 % 0.0 in
08:45 14.4 °F 14.1 °F 998.5 in Calm     98 % 0.0 in
09:00 14.5 °F 14.2 °F 998.5 in Calm     98 % 0.0 in
09:15 14.6 °F 14.2 °F 998.5 in Calm     98 % 0.0 in
09:30 14.7 °F 14.4 °F 998.9 in Calm     98 % 0.0 in
09:45 14.9 °F 14.6 °F 998.9 in Calm     98 % 0.0 in
10:00 15.1 °F 14.7 °F 998.9 in Calm     98 % 0.0 in
10:15 15.2 °F 14.9 °F 999.2 in Calm     98 % 0.0 in
10:30 15.6 °F 15.2 °F 999.2 in Calm   1.6 mph 98 % 0.0 in
10:45 16.2 °F 15.9 °F 999.2 in Calm   3.2 mph 98 % 0.0 in
11:00 16.3 °F 16.0 °F 999.2 in Calm   1.6 mph 98 % 0.0 in
11:15 16.5 °F 16.0 °F 999.2 in Calm     97 % 0.0 in
11:30 17.2 °F 16.4 °F 999.5 in Calm   1.6 mph 95 % 0.0 in
11:45 16.6 °F 15.6 °F 999.9 in Calm     94 % 2.8 in
12:00 16.3 °F 15.6 °F 999.9 in Calm     96 % 3.3 in
12:15 16.3 °F 15.7 °F 999.9 in Calm     96 % 3.8 in
12:30 16.4 °F 15.7 °F 999.9 in Calm   1.6 mph 96 % 3.8 in
12:45 16.1 °F 15.4 °F 999.9 in Calm     96 % 1.0 in
13:00 16.0 °F 15.5 °F 1000.2 in Calm   3.2 mph 97 % 0.3 in
13:15 16.0 °F 15.5 °F 1000.2 in Calm   4.8 mph 97 % 0.0 in
13:30 15.8 °F 15.1 °F 1000.2 in Calm     96 % 0.3 in
13:45 15.7 °F 15.2 °F 1000.2 in Calm   1.6 mph 97 % 0.5 in
14:00 15.8 °F 15.3 °F 1000.6 in Calm     97 % 0.5 in
14:15 15.9 °F 15.6 °F 1000.2 in Calm     98 % 0.5 in
14:30 15.9 °F 15.5 °F 1000.6 in Calm   3.2 mph 97 % 3.3 in
14:45 15.7 °F 15.2 °F 1000.6 in Calm     97 % 3.8 in
15:00 15.9 °F 15.4 °F 1000.6 in Calm   4.8 mph 97 % 3.8 in
15:15 16.2 °F 15.9 °F 1000.6 in Calm   6.4 mph 98 % 4.1 in
15:30 16.9 °F 16.6 °F 1000.6 in Calm   3.2 mph 98 % 1.0 in
15:45 16.6 °F 16.0 °F 1000.6 in Calm     96 % 0.5 in
16:00 16.6 °F 16.1 °F 1000.6 in Calm     97 % 0.5 in
16:15 16.6 °F 16.0 °F 1000.9 in Calm   1.6 mph 96 % 0.3 in
16:30 16.1 °F 15.3 °F 1000.9 in Calm   3.2 mph 95 % 0.0 in
16:45 16.2 °F 15.7 °F 1000.9 in Calm   1.6 mph 97 % 0.0 in
17:00 16.6 °F 15.9 °F 1000.9 in Calm   6.4 mph 96 % 0.0 in
17:15 16.8 °F 15.9 °F 1000.9 in North 1.6 mph 9.7 mph 94 % 0.0 in
17:30 17.1 °F 15.8 °F 1000.9 in NNW 1.6 mph 8.0 mph 92 % 0.0 in
17:45 16.9 °F 15.2 °F 1001.2 in NNW 1.6 mph 8.0 mph 90 % 0.3 in
18:00 16.5 °F 15.4 °F 1001.2 in Calm   3.2 mph 93 % 0.3 in
18:15 16.2 °F 15.0 °F 1001.2 in Calm   3.2 mph 93 % 0.3 in
18:30 15.8 °F 14.7 °F 1001.6 in Calm   6.4 mph 93 % 0.3 in
18:45 15.7 °F 14.7 °F 1001.6 in Calm   3.2 mph 94 % 0.0 in
19:00 15.6 °F 14.4 °F 1001.6 in Calm   3.2 mph 93 % 0.0 in
19:15 15.3 °F 14.4 °F 1001.9 in Calm     94 % 0.0 in
19:30 15.2 °F 14.3 °F 1001.9 in Calm     94 % 0.0 in
19:45 15.1 °F 14.3 °F 1002.3 in Calm   3.2 mph 95 % 0.0 in
20:00 15.1 °F 14.3 °F 1002.3 in Calm   1.6 mph 95 % 0.0 in
20:15 15.0 °F 14.2 °F 1002.3 in Calm   1.6 mph 95 % 0.0 in
20:30 14.8 °F 13.9 °F 1002.3 in Calm     94 % 0.0 in
20:45 14.8 °F 14.0 °F 1002.6 in Calm     95 % 0.0 in
21:00 14.7 °F 13.9 °F 1002.6 in Calm     95 % 0.0 in
21:15 14.6 °F 13.8 °F 1002.9 in Calm   1.6 mph 95 % 0.0 in
21:30 14.5 °F 13.7 °F 1002.9 in Calm     95 % 0.0 in
21:45 14.3 °F 13.5 °F 1002.9 in Calm   3.2 mph 95 % 0.0 in
22:00 14.2 °F 13.4 °F 1003.3 in Calm     95 % 0.0 in
22:15 14.1 °F 13.3 °F 1003.3 in Calm   1.6 mph 95 % 0.0 in
22:30 13.9 °F 13.3 °F 1003.3 in Calm   1.6 mph 96 % 0.0 in
22:45 13.8 °F 13.2 °F 1003.6 in Calm   3.2 mph 96 % 0.0 in
23:00 13.7 °F 13.0 °F 1003.6 in Calm   3.2 mph 96 % 0.0 in
23:15 13.6 °F 12.9 °F 1003.6 in Calm   1.6 mph 96 % 0.0 in
23:30 13.4 °F 12.8 °F 1003.9 in Calm   4.8 mph 96 % 0.0 in
23:45 13.3 °F 12.7 °F 1003.9 in Calm   3.2 mph 96 % 0.0 in
Esan sääasema
Terveisin Weather Underground - 2.75 mb

Alkuperäinen skripti  Jim McMurry - jmcmurry@mwt.net Sovitettu myös templatelle  Wim van der Kuil - Leuven-Template.eu

Laitteet joita käytämme:

Sääasema
Davis VP2

Sääasemaohjelma
Cumulus

Sääaseman tietokone
Asus EeePC

Palveluntarjoaja
Suncomet

Davis VP2

Cumulus

Asus EeePC

Suncomet